sensor_id;sensor_type;location;lat;lon;timestamp;temperature;humidity
28010;DHT22;15334;49.494;8.410;2023-02-04T00:00:53;9.60;99.90
28010;DHT22;15334;49.494;8.410;2023-02-04T00:03:21;9.50;99.90
28010;DHT22;15334;49.494;8.410;2023-02-04T00:05:48;9.50;99.90
28010;DHT22;15334;49.494;8.410;2023-02-04T00:08:16;9.50;99.90
28010;DHT22;15334;49.494;8.410;2023-02-04T00:10:45;9.50;99.90
28010;DHT22;15334;49.494;8.410;2023-02-04T00:13:14;9.50;99.90
28010;DHT22;15334;49.494;8.410;2023-02-04T00:15:46;9.40;99.90
28010;DHT22;15334;49.494;8.410;2023-02-04T00:18:14;9.40;99.90
28010;DHT22;15334;49.494;8.410;2023-02-04T00:20:42;9.40;99.90
28010;DHT22;15334;49.494;8.410;2023-02-04T00:23:10;9.40;99.90
28010;DHT22;15334;49.494;8.410;2023-02-04T00:25:38;9.40;99.90
28010;DHT22;15334;49.494;8.410;2023-02-04T00:28:08;9.40;99.90
28010;DHT22;15334;49.494;8.410;2023-02-04T00:30:36;9.30;99.90
28010;DHT22;15334;49.494;8.410;2023-02-04T00:33:05;9.40;99.90
28010;DHT22;15334;49.494;8.410;2023-02-04T00:35:33;9.40;99.90
28010;DHT22;15334;49.494;8.410;2023-02-04T00:38:03;9.40;99.90
28010;DHT22;15334;49.494;8.410;2023-02-04T00:40:31;9.50;99.90
28010;DHT22;15334;49.494;8.410;2023-02-04T00:42:59;9.50;99.90
28010;DHT22;15334;49.494;8.410;2023-02-04T00:45:27;9.50;99.90
28010;DHT22;15334;49.494;8.410;2023-02-04T00:47:55;9.50;99.90
28010;DHT22;15334;49.494;8.410;2023-02-04T00:50:25;9.50;99.90
28010;DHT22;15334;49.494;8.410;2023-02-04T00:52:53;9.50;99.90
28010;DHT22;15334;49.494;8.410;2023-02-04T00:55:21;9.50;99.90
28010;DHT22;15334;49.494;8.410;2023-02-04T00:57:49;9.40;99.90
28010;DHT22;15334;49.494;8.410;2023-02-04T01:00:17;9.40;99.90
28010;DHT22;15334;49.494;8.410;2023-02-04T01:02:45;9.50;99.90
28010;DHT22;15334;49.494;8.410;2023-02-04T01:05:13;9.50;99.90
28010;DHT22;15334;49.494;8.410;2023-02-04T01:07:42;9.50;99.90
28010;DHT22;15334;49.494;8.410;2023-02-04T01:10:11;9.50;99.90
28010;DHT22;15334;49.494;8.410;2023-02-04T01:12:39;9.50;99.90
28010;DHT22;15334;49.494;8.410;2023-02-04T01:15:08;9.60;99.90
28010;DHT22;15334;49.494;8.410;2023-02-04T01:17:36;9.60;99.90
28010;DHT22;15334;49.494;8.410;2023-02-04T01:20:07;9.60;99.90
28010;DHT22;15334;49.494;8.410;2023-02-04T01:22:37;9.60;99.90
28010;DHT22;15334;49.494;8.410;2023-02-04T01:25:07;9.70;99.90
28010;DHT22;15334;49.494;8.410;2023-02-04T01:27:35;9.70;99.90
28010;DHT22;15334;49.494;8.410;2023-02-04T01:30:04;9.70;99.90
28010;DHT22;15334;49.494;8.410;2023-02-04T01:32:33;9.70;99.90
28010;DHT22;15334;49.494;8.410;2023-02-04T01:35:01;9.70;99.90
28010;DHT22;15334;49.494;8.410;2023-02-04T01:37:29;9.70;99.90
28010;DHT22;15334;49.494;8.410;2023-02-04T01:39:57;9.70;99.90
28010;DHT22;15334;49.494;8.410;2023-02-04T01:42:26;9.80;99.90
28010;DHT22;15334;49.494;8.410;2023-02-04T01:44:54;9.80;99.90
28010;DHT22;15334;49.494;8.410;2023-02-04T01:47:22;9.80;99.90
28010;DHT22;15334;49.494;8.410;2023-02-04T01:49:53;9.80;99.90
28010;DHT22;15334;49.494;8.410;2023-02-04T01:52:23;9.80;99.90
28010;DHT22;15334;49.494;8.410;2023-02-04T01:54:52;9.70;99.90
28010;DHT22;15334;49.494;8.410;2023-02-04T01:57:20;9.60;99.90
28010;DHT22;15334;49.494;8.410;2023-02-04T01:59:51;9.60;99.90
28010;DHT22;15334;49.494;8.410;2023-02-04T02:02:41;9.60;99.90
28010;DHT22;15334;49.494;8.410;2023-02-04T02:05:12;9.60;99.90
28010;DHT22;15334;49.494;8.410;2023-02-04T02:07:41;9.60;99.90
28010;DHT22;15334;49.494;8.410;2023-02-04T02:10:11;9.60;99.90
28010;DHT22;15334;49.494;8.410;2023-02-04T02:12:40;9.60;99.90
28010;DHT22;15334;49.494;8.410;2023-02-04T02:15:11;9.50;99.90
28010;DHT22;15334;49.494;8.410;2023-02-04T02:17:40;9.60;99.90
28010;DHT22;15334;49.494;8.410;2023-02-04T02:20:10;9.50;99.90
28010;DHT22;15334;49.494;8.410;2023-02-04T02:22:43;9.50;99.90
28010;DHT22;15334;49.494;8.410;2023-02-04T02:25:14;9.50;99.90
28010;DHT22;15334;49.494;8.410;2023-02-04T02:27:42;9.40;99.90
28010;DHT22;15334;49.494;8.410;2023-02-04T02:30:11;9.40;99.90
28010;DHT22;15334;49.494;8.410;2023-02-04T02:32:46;9.30;99.90
28010;DHT22;15334;49.494;8.410;2023-02-04T02:35:15;9.20;99.90
28010;DHT22;15334;49.494;8.410;2023-02-04T02:37:43;9.30;99.90
28010;DHT22;15334;49.494;8.410;2023-02-04T02:40:13;9.20;99.90
28010;DHT22;15334;49.494;8.410;2023-02-04T02:42:42;9.10;99.90
28010;DHT22;15334;49.494;8.410;2023-02-04T02:45:19;8.90;99.90
28010;DHT22;15334;49.494;8.410;2023-02-04T02:47:48;8.80;99.90
28010;DHT22;15334;49.494;8.410;2023-02-04T02:50:19;8.80;99.90
28010;DHT22;15334;49.494;8.410;2023-02-04T02:52:47;8.70;99.90
28010;DHT22;15334;49.494;8.410;2023-02-04T02:55:18;8.80;99.90
28010;DHT22;15334;49.494;8.410;2023-02-04T02:57:48;8.80;99.90
28010;DHT22;15334;49.494;8.410;2023-02-04T03:00:18;8.80;99.90
28010;DHT22;15334;49.494;8.410;2023-02-04T03:02:53;8.80;99.90
28010;DHT22;15334;49.494;8.410;2023-02-04T03:05:22;8.60;99.90
28010;DHT22;15334;49.494;8.410;2023-02-04T03:07:50;8.50;99.90
28010;DHT22;15334;49.494;8.410;2023-02-04T03:10:19;8.40;99.90
28010;DHT22;15334;49.494;8.410;2023-02-04T03:12:47;8.30;99.90
28010;DHT22;15334;49.494;8.410;2023-02-04T03:15:16;8.30;99.90
28010;DHT22;15334;49.494;8.410;2023-02-04T03:17:44;8.30;99.90
28010;DHT22;15334;49.494;8.410;2023-02-04T03:20:13;8.30;99.90
28010;DHT22;15334;49.494;8.410;2023-02-04T03:22:42;8.30;99.90
28010;DHT22;15334;49.494;8.410;2023-02-04T03:25:10;8.20;99.90
28010;DHT22;15334;49.494;8.410;2023-02-04T03:27:39;8.10;99.90
28010;DHT22;15334;49.494;8.410;2023-02-04T03:30:08;8.10;99.90
28010;DHT22;15334;49.494;8.410;2023-02-04T03:32:36;8.10;99.90
28010;DHT22;15334;49.494;8.410;2023-02-04T03:35:04;8.10;99.90
28010;DHT22;15334;49.494;8.410;2023-02-04T03:37:32;8.10;99.90
28010;DHT22;15334;49.494;8.410;2023-02-04T03:40:00;8.10;99.90
28010;DHT22;15334;49.494;8.410;2023-02-04T03:42:28;8.10;99.90
28010;DHT22;15334;49.494;8.410;2023-02-04T03:44:57;8.00;99.90
28010;DHT22;15334;49.494;8.410;2023-02-04T03:47:25;8.00;99.90
28010;DHT22;15334;49.494;8.410;2023-02-04T03:49:53;7.90;99.90
28010;DHT22;15334;49.494;8.410;2023-02-04T03:52:21;7.90;99.90
28010;DHT22;15334;49.494;8.410;2023-02-04T03:54:49;7.90;99.90
28010;DHT22;15334;49.494;8.410;2023-02-04T03:57:17;7.80;99.90
28010;DHT22;15334;49.494;8.410;2023-02-04T03:59:45;7.90;99.90
28010;DHT22;15334;49.494;8.410;2023-02-04T04:02:14;8.00;99.90
28010;DHT22;15334;49.494;8.410;2023-02-04T04:04:42;7.90;99.90
28010;DHT22;15334;49.494;8.410;2023-02-04T04:07:10;7.90;99.90
28010;DHT22;15334;49.494;8.410;2023-02-04T04:09:41;7.90;99.90
28010;DHT22;15334;49.494;8.410;2023-02-04T04:12:09;7.90;99.90
28010;DHT22;15334;49.494;8.410;2023-02-04T04:14:37;8.00;99.90
28010;DHT22;15334;49.494;8.410;2023-02-04T04:17:05;7.90;99.90
28010;DHT22;15334;49.494;8.410;2023-02-04T04:19:37;7.90;99.90
28010;DHT22;15334;49.494;8.410;2023-02-04T04:22:05;8.00;99.90
28010;DHT22;15334;49.494;8.410;2023-02-04T04:24:33;8.00;99.90
28010;DHT22;15334;49.494;8.410;2023-02-04T04:27:01;8.00;99.90
28010;DHT22;15334;49.494;8.410;2023-02-04T04:29:29;8.10;99.90
28010;DHT22;15334;49.494;8.410;2023-02-04T04:31:57;8.10;99.90
28010;DHT22;15334;49.494;8.410;2023-02-04T04:34:25;8.10;99.90
28010;DHT22;15334;49.494;8.410;2023-02-04T04:36:54;8.10;99.90
28010;DHT22;15334;49.494;8.410;2023-02-04T04:39:25;8.10;99.90
28010;DHT22;15334;49.494;8.410;2023-02-04T04:41:53;8.20;99.90
28010;DHT22;15334;49.494;8.410;2023-02-04T04:44:21;8.20;99.90
28010;DHT22;15334;49.494;8.410;2023-02-04T04:46:49;8.10;99.90
28010;DHT22;15334;49.494;8.410;2023-02-04T04:49:17;8.20;99.90
28010;DHT22;15334;49.494;8.410;2023-02-04T04:51:45;8.20;99.90
28010;DHT22;15334;49.494;8.410;2023-02-04T04:54:14;8.20;99.90
28010;DHT22;15334;49.494;8.410;2023-02-04T04:56:42;8.10;99.90
28010;DHT22;15334;49.494;8.410;2023-02-04T04:59:10;8.10;99.90
28010;DHT22;15334;49.494;8.410;2023-02-04T05:01:40;8.10;99.90
28010;DHT22;15334;49.494;8.410;2023-02-04T05:04:08;8.10;99.90
28010;DHT22;15334;49.494;8.410;2023-02-04T05:06:36;8.10;99.90
28010;DHT22;15334;49.494;8.410;2023-02-04T05:09:04;8.10;99.90
28010;DHT22;15334;49.494;8.410;2023-02-04T05:11:34;8.10;99.90
28010;DHT22;15334;49.494;8.410;2023-02-04T05:14:04;8.10;99.90
28010;DHT22;15334;49.494;8.410;2023-02-04T05:16:34;8.00;99.90
28010;DHT22;15334;49.494;8.410;2023-02-04T05:19:02;8.00;99.90
28010;DHT22;15334;49.494;8.410;2023-02-04T05:21:30;8.00;99.90
28010;DHT22;15334;49.494;8.410;2023-02-04T05:23:58;8.00;99.90
28010;DHT22;15334;49.494;8.410;2023-02-04T05:26:26;7.90;99.90
28010;DHT22;15334;49.494;8.410;2023-02-04T05:28:58;8.00;99.90
28010;DHT22;15334;49.494;8.410;2023-02-04T05:31:27;8.00;99.90
28010;DHT22;15334;49.494;8.410;2023-02-04T05:33:55;8.00;99.90
28010;DHT22;15334;49.494;8.410;2023-02-04T05:36:23;8.00;99.90
28010;DHT22;15334;49.494;8.410;2023-02-04T05:38:51;7.90;99.90
28010;DHT22;15334;49.494;8.410;2023-02-04T05:41:19;7.90;99.90
28010;DHT22;15334;49.494;8.410;2023-02-04T05:43:46;7.90;99.90
28010;DHT22;15334;49.494;8.410;2023-02-04T05:46:16;7.90;99.90
28010;DHT22;15334;49.494;8.410;2023-02-04T05:48:44;7.90;99.90
28010;DHT22;15334;49.494;8.410;2023-02-04T05:51:12;8.00;99.90
28010;DHT22;15334;49.494;8.410;2023-02-04T05:53:40;8.00;99.90
28010;DHT22;15334;49.494;8.410;2023-02-04T05:56:08;7.90;99.90
28010;DHT22;15334;49.494;8.410;2023-02-04T05:58:36;7.80;99.90
28010;DHT22;15334;49.494;8.410;2023-02-04T06:01:06;7.70;99.90
28010;DHT22;15334;49.494;8.410;2023-02-04T06:03:35;7.70;99.90
28010;DHT22;15334;49.494;8.410;2023-02-04T06:06:03;7.60;99.90
28010;DHT22;15334;49.494;8.410;2023-02-04T06:08:31;7.50;99.90
28010;DHT22;15334;49.494;8.410;2023-02-04T06:10:59;7.50;99.90
28010;DHT22;15334;49.494;8.410;2023-02-04T06:13:27;7.50;99.90
28010;DHT22;15334;49.494;8.410;2023-02-04T06:15:55;7.50;99.90
28010;DHT22;15334;49.494;8.410;2023-02-04T06:18:23;7.50;99.90
28010;DHT22;15334;49.494;8.410;2023-02-04T06:20:52;7.50;99.90
28010;DHT22;15334;49.494;8.410;2023-02-04T06:23:20;7.50;99.90
28010;DHT22;15334;49.494;8.410;2023-02-04T06:25:48;7.50;99.90
28010;DHT22;15334;49.494;8.410;2023-02-04T06:28:16;7.50;99.90
28010;DHT22;15334;49.494;8.410;2023-02-04T06:30:47;7.60;99.90
28010;DHT22;15334;49.494;8.410;2023-02-04T06:33:16;7.50;99.90
28010;DHT22;15334;49.494;8.410;2023-02-04T06:35:44;7.40;99.90
28010;DHT22;15334;49.494;8.410;2023-02-04T06:38:13;7.40;99.90
28010;DHT22;15334;49.494;8.410;2023-02-04T06:40:41;7.40;99.90
28010;DHT22;15334;49.494;8.410;2023-02-04T06:43:09;7.40;99.90
28010;DHT22;15334;49.494;8.410;2023-02-04T06:45:37;7.40;99.90
28010;DHT22;15334;49.494;8.410;2023-02-04T06:48:08;7.50;99.90
28010;DHT22;15334;49.494;8.410;2023-02-04T06:50:36;7.50;99.90
28010;DHT22;15334;49.494;8.410;2023-02-04T06:53:04;7.50;99.90
28010;DHT22;15334;49.494;8.410;2023-02-04T06:55:33;7.60;99.90
28010;DHT22;15334;49.494;8.410;2023-02-04T06:58:01;7.60;99.90
28010;DHT22;15334;49.494;8.410;2023-02-04T07:00:29;7.60;99.90
28010;DHT22;15334;49.494;8.410;2023-02-04T07:03:00;7.60;99.90
28010;DHT22;15334;49.494;8.410;2023-02-04T07:05:28;7.60;99.90
28010;DHT22;15334;49.494;8.410;2023-02-04T07:07:57;7.60;99.90
28010;DHT22;15334;49.494;8.410;2023-02-04T07:10:25;7.70;99.90
28010;DHT22;15334;49.494;8.410;2023-02-04T07:12:55;7.70;99.90
28010;DHT22;15334;49.494;8.410;2023-02-04T07:15:24;7.70;99.90
28010;DHT22;15334;49.494;8.410;2023-02-04T07:17:52;7.70;99.90
28010;DHT22;15334;49.494;8.410;2023-02-04T07:20:20;7.80;99.90
28010;DHT22;15334;49.494;8.410;2023-02-04T07:22:49;7.80;99.90
28010;DHT22;15334;49.494;8.410;2023-02-04T07:25:18;7.70;99.90
28010;DHT22;15334;49.494;8.410;2023-02-04T07:27:46;7.80;99.90
28010;DHT22;15334;49.494;8.410;2023-02-04T07:30:17;7.80;99.90
28010;DHT22;15334;49.494;8.410;2023-02-04T07:32:46;7.80;99.90
28010;DHT22;15334;49.494;8.410;2023-02-04T07:35:14;7.80;99.90
28010;DHT22;15334;49.494;8.410;2023-02-04T07:37:43;7.80;99.90
28010;DHT22;15334;49.494;8.410;2023-02-04T07:40:13;7.80;99.90
28010;DHT22;15334;49.494;8.410;2023-02-04T07:42:41;7.80;99.90
28010;DHT22;15334;49.494;8.410;2023-02-04T07:45:09;7.80;99.90
28010;DHT22;15334;49.494;8.410;2023-02-04T07:47:39;7.80;99.90
28010;DHT22;15334;49.494;8.410;2023-02-04T07:50:08;7.80;99.90
28010;DHT22;15334;49.494;8.410;2023-02-04T07:52:36;7.90;99.90
28010;DHT22;15334;49.494;8.410;2023-02-04T07:55:05;8.00;99.90
28010;DHT22;15334;49.494;8.410;2023-02-04T07:57:33;8.00;99.90
28010;DHT22;15334;49.494;8.410;2023-02-04T08:00:01;8.00;99.90
28010;DHT22;15334;49.494;8.410;2023-02-04T08:02:29;8.10;99.90
28010;DHT22;15334;49.494;8.410;2023-02-04T08:04:58;8.20;99.90
28010;DHT22;15334;49.494;8.410;2023-02-04T08:07:28;8.20;99.90
28010;DHT22;15334;49.494;8.410;2023-02-04T08:09:56;8.30;99.90
28010;DHT22;15334;49.494;8.410;2023-02-04T08:12:24;8.30;99.90
28010;DHT22;15334;49.494;8.410;2023-02-04T08:14:52;8.40;99.90
28010;DHT22;15334;49.494;8.410;2023-02-04T08:17:20;8.40;99.90
28010;DHT22;15334;49.494;8.410;2023-02-04T08:19:48;8.40;99.90
28010;DHT22;15334;49.494;8.410;2023-02-04T08:22:17;8.40;99.90
28010;DHT22;15334;49.494;8.410;2023-02-04T08:24:45;8.40;99.90
28010;DHT22;15334;49.494;8.410;2023-02-04T08:27:14;8.50;99.90
28010;DHT22;15334;49.494;8.410;2023-02-04T08:29:43;8.60;99.90
28010;DHT22;15334;49.494;8.410;2023-02-04T08:32:16;8.50;99.90
28010;DHT22;15334;49.494;8.410;2023-02-04T08:34:46;8.30;99.90
28010;DHT22;15334;49.494;8.410;2023-02-04T08:37:18;8.30;99.90
28010;DHT22;15334;49.494;8.410;2023-02-04T08:39:49;8.30;99.90
28010;DHT22;15334;49.494;8.410;2023-02-04T08:42:19;8.20;99.90
28010;DHT22;15334;49.494;8.410;2023-02-04T08:44:47;8.20;99.90
28010;DHT22;15334;49.494;8.410;2023-02-04T08:47:15;8.10;99.90
28010;DHT22;15334;49.494;8.410;2023-02-04T08:49:43;8.10;99.90
28010;DHT22;15334;49.494;8.410;2023-02-04T08:52:10;8.20;99.90
28010;DHT22;15334;49.494;8.410;2023-02-04T08:54:40;8.30;99.90
28010;DHT22;15334;49.494;8.410;2023-02-04T08:57:08;8.30;99.90
28010;DHT22;15334;49.494;8.410;2023-02-04T08:59:36;8.30;99.90
28010;DHT22;15334;49.494;8.410;2023-02-04T09:02:09;8.50;99.90
28010;DHT22;15334;49.494;8.410;2023-02-04T09:04:37;8.60;99.90
28010;DHT22;15334;49.494;8.410;2023-02-04T09:07:05;8.70;99.90
28010;DHT22;15334;49.494;8.410;2023-02-04T09:09:33;8.70;99.90
28010;DHT22;15334;49.494;8.410;2023-02-04T09:12:02;8.80;99.90
28010;DHT22;15334;49.494;8.410;2023-02-04T09:14:30;8.80;99.90
28010;DHT22;15334;49.494;8.410;2023-02-04T09:17:00;8.80;99.90
28010;DHT22;15334;49.494;8.410;2023-02-04T09:19:35;8.90;99.90
28010;DHT22;15334;49.494;8.410;2023-02-04T09:22:05;8.70;99.90
28010;DHT22;15334;49.494;8.410;2023-02-04T09:24:33;8.80;99.90
28010;DHT22;15334;49.494;8.410;2023-02-04T09:27:06;8.80;99.90
28010;DHT22;15334;49.494;8.410;2023-02-04T09:29:37;8.90;99.90
28010;DHT22;15334;49.494;8.410;2023-02-04T09:32:06;8.80;99.90
28010;DHT22;15334;49.494;8.410;2023-02-04T09:34:34;8.80;99.90
28010;DHT22;15334;49.494;8.410;2023-02-04T09:37:04;8.80;99.90
28010;DHT22;15334;49.494;8.410;2023-02-04T09:39:32;8.80;99.90
28010;DHT22;15334;49.494;8.410;2023-02-04T09:42:00;8.80;99.90
28010;DHT22;15334;49.494;8.410;2023-02-04T09:44:30;8.90;99.90
28010;DHT22;15334;49.494;8.410;2023-02-04T09:47:00;8.90;99.90
28010;DHT22;15334;49.494;8.410;2023-02-04T09:49:28;9.10;99.90
28010;DHT22;15334;49.494;8.410;2023-02-04T09:51:56;9.20;99.90
28010;DHT22;15334;49.494;8.410;2023-02-04T09:54:24;9.20;99.90
28010;DHT22;15334;49.494;8.410;2023-02-04T09:56:52;9.20;99.90
28010;DHT22;15334;49.494;8.410;2023-02-04T09:59:22;9.40;99.90
28010;DHT22;15334;49.494;8.410;2023-02-04T10:01:59;9.40;99.90
28010;DHT22;15334;49.494;8.410;2023-02-04T10:04:27;9.50;99.90
28010;DHT22;15334;49.494;8.410;2023-02-04T10:06:56;9.60;99.90
28010;DHT22;15334;49.494;8.410;2023-02-04T10:09:25;9.70;99.90
28010;DHT22;15334;49.494;8.410;2023-02-04T10:11:53;9.70;99.90
28010;DHT22;15334;49.494;8.410;2023-02-04T10:14:23;9.70;99.90
28010;DHT22;15334;49.494;8.410;2023-02-04T10:16:54;9.60;99.90
28010;DHT22;15334;49.494;8.410;2023-02-04T10:19:29;9.70;99.90
28010;DHT22;15334;49.494;8.410;2023-02-04T10:21:57;9.80;99.90
28010;DHT22;15334;49.494;8.410;2023-02-04T10:24:26;9.60;99.90
28010;DHT22;15334;49.494;8.410;2023-02-04T10:27:06;9.50;99.90
28010;DHT22;15334;49.494;8.410;2023-02-04T10:29:35;9.50;99.90
28010;DHT22;15334;49.494;8.410;2023-02-04T10:32:04;9.30;99.90
28010;DHT22;15334;49.494;8.410;2023-02-04T10:34:36;9.30;99.90
28010;DHT22;15334;49.494;8.410;2023-02-04T10:37:13;9.20;99.90
28010;DHT22;15334;49.494;8.410;2023-02-04T10:39:47;9.30;99.90
28010;DHT22;15334;49.494;8.410;2023-02-04T10:42:20;9.40;99.90
28010;DHT22;15334;49.494;8.410;2023-02-04T10:44:49;9.70;99.90
28010;DHT22;15334;49.494;8.410;2023-02-04T10:47:20;9.80;99.90
28010;DHT22;15334;49.494;8.410;2023-02-04T10:49:56;10.00;99.90
28010;DHT22;15334;49.494;8.410;2023-02-04T10:52:29;10.10;99.90
28010;DHT22;15334;49.494;8.410;2023-02-04T10:55:02;10.00;99.90
28010;DHT22;15334;49.494;8.410;2023-02-04T10:57:32;10.10;99.90
28010;DHT22;15334;49.494;8.410;2023-02-04T11:00:05;10.10;99.90
28010;DHT22;15334;49.494;8.410;2023-02-04T11:02:43;10.10;99.90
28010;DHT22;15334;49.494;8.410;2023-02-04T11:05:15;9.90;99.90
28010;DHT22;15334;49.494;8.410;2023-02-04T11:07:44;9.80;99.90
28010;DHT22;15334;49.494;8.410;2023-02-04T11:10:14;9.70;99.90
28010;DHT22;15334;49.494;8.410;2023-02-04T11:12:44;9.70;99.90
28010;DHT22;15334;49.494;8.410;2023-02-04T11:15:35;9.70;99.90
28010;DHT22;15334;49.494;8.410;2023-02-04T11:18:07;9.70;99.90
28010;DHT22;15334;49.494;8.410;2023-02-04T11:20:36;9.80;99.90
28010;DHT22;15334;49.494;8.410;2023-02-04T11:23:28;9.70;99.90
28010;DHT22;15334;49.494;8.410;2023-02-04T11:26:06;9.70;99.90
28010;DHT22;15334;49.494;8.410;2023-02-04T11:28:47;9.60;99.90
28010;DHT22;15334;49.494;8.410;2023-02-04T11:31:40;9.70;99.90
28010;DHT22;15334;49.494;8.410;2023-02-04T11:34:26;9.70;99.90
28010;DHT22;15334;49.494;8.410;2023-02-04T11:39:43;9.70;99.90
28010;DHT22;15334;49.494;8.410;2023-02-04T11:42:17;9.70;99.90
28010;DHT22;15334;49.494;8.410;2023-02-04T11:44:54;9.70;99.90
28010;DHT22;15334;49.494;8.410;2023-02-04T11:47:27;9.70;99.90
28010;DHT22;15334;49.494;8.410;2023-02-04T11:50:09;9.80;99.90
28010;DHT22;15334;49.494;8.410;2023-02-04T11:52:40;9.90;99.90
28010;DHT22;15334;49.494;8.410;2023-02-04T11:55:09;10.10;99.90
28010;DHT22;15334;49.494;8.410;2023-02-04T11:57:40;10.20;99.90
28010;DHT22;15334;49.494;8.410;2023-02-04T12:00:13;10.10;99.90
28010;DHT22;15334;49.494;8.410;2023-02-04T12:02:43;10.10;99.90
28010;DHT22;15334;49.494;8.410;2023-02-04T12:05:17;10.00;99.90
28010;DHT22;15334;49.494;8.410;2023-02-04T12:07:47;10.00;99.90
28010;DHT22;15334;49.494;8.410;2023-02-04T12:10:23;10.00;99.90
28010;DHT22;15334;49.494;8.410;2023-02-04T12:12:54;10.00;99.90
28010;DHT22;15334;49.494;8.410;2023-02-04T12:15:30;10.00;99.90
28010;DHT22;15334;49.494;8.410;2023-02-04T12:18:03;10.00;99.90
28010;DHT22;15334;49.494;8.410;2023-02-04T12:20:34;10.10;99.90
28010;DHT22;15334;49.494;8.410;2023-02-04T12:23:02;10.10;99.90
28010;DHT22;15334;49.494;8.410;2023-02-04T12:25:34;10.10;99.90
28010;DHT22;15334;49.494;8.410;2023-02-04T12:28:01;10.20;99.90
28010;DHT22;15334;49.494;8.410;2023-02-04T12:30:29;10.40;99.90
28010;DHT22;15334;49.494;8.410;2023-02-04T12:32:57;10.50;99.90
28010;DHT22;15334;49.494;8.410;2023-02-04T12:35:25;10.60;99.90
28010;DHT22;15334;49.494;8.410;2023-02-04T12:37:57;10.60;99.90
28010;DHT22;15334;49.494;8.410;2023-02-04T12:40:26;10.70;99.90
28010;DHT22;15334;49.494;8.410;2023-02-04T12:42:54;10.90;99.90
28010;DHT22;15334;49.494;8.410;2023-02-04T12:45:22;10.70;99.90
28010;DHT22;15334;49.494;8.410;2023-02-04T12:47:50;10.50;99.90
28010;DHT22;15334;49.494;8.410;2023-02-04T12:50:18;10.40;99.90
28010;DHT22;15334;49.494;8.410;2023-02-04T12:52:49;10.40;99.90
28010;DHT22;15334;49.494;8.410;2023-02-04T12:55:19;10.40;99.90
28010;DHT22;15334;49.494;8.410;2023-02-04T12:57:48;10.40;99.90
28010;DHT22;15334;49.494;8.410;2023-02-04T13:00:19;10.30;99.90
28010;DHT22;15334;49.494;8.410;2023-02-04T13:02:47;10.40;99.90
28010;DHT22;15334;49.494;8.410;2023-02-04T13:05:16;11.00;99.90
28010;DHT22;15334;49.494;8.410;2023-02-04T13:07:44;12.20;99.90
28010;DHT22;15334;49.494;8.410;2023-02-04T13:10:12;12.60;99.90
28010;DHT22;15334;49.494;8.410;2023-02-04T13:15:12;15.00;99.90
28010;DHT22;15334;49.494;8.410;2023-02-04T13:17:40;16.10;99.90
28010;DHT22;15334;49.494;8.410;2023-02-04T13:20:09;15.60;99.90
28010;DHT22;15334;49.494;8.410;2023-02-04T13:22:38;14.80;99.90
28010;DHT22;15334;49.494;8.410;2023-02-04T13:25:06;14.30;99.90
28010;DHT22;15334;49.494;8.410;2023-02-04T13:27:35;13.90;99.90
28010;DHT22;15334;49.494;8.410;2023-02-04T13:30:06;13.60;99.90
28010;DHT22;15334;49.494;8.410;2023-02-04T13:32:34;13.30;99.90
28010;DHT22;15334;49.494;8.410;2023-02-04T13:35:02;13.20;99.90
28010;DHT22;15334;49.494;8.410;2023-02-04T13:37:30;12.90;99.90
28010;DHT22;15334;49.494;8.410;2023-02-04T13:39:58;12.70;99.90
28010;DHT22;15334;49.494;8.410;2023-02-04T13:42:26;12.40;99.90
28010;DHT22;15334;49.494;8.410;2023-02-04T13:44:54;12.00;99.90
28010;DHT22;15334;49.494;8.410;2023-02-04T13:47:24;12.00;99.90
28010;DHT22;15334;49.494;8.410;2023-02-04T13:49:52;11.90;99.90
28010;DHT22;15334;49.494;8.410;2023-02-04T13:52:20;11.50;99.90
28010;DHT22;15334;49.494;8.410;2023-02-04T13:54:48;11.30;99.90
28010;DHT22;15334;49.494;8.410;2023-02-04T13:57:16;11.20;99.90
28010;DHT22;15334;49.494;8.410;2023-02-04T13:59:44;11.20;99.90
28010;DHT22;15334;49.494;8.410;2023-02-04T14:02:14;11.30;99.90
28010;DHT22;15334;49.494;8.410;2023-02-04T14:04:44;11.20;99.90
28010;DHT22;15334;49.494;8.410;2023-02-04T14:07:15;11.20;99.90
28010;DHT22;15334;49.494;8.410;2023-02-04T14:09:44;11.20;99.90
28010;DHT22;15334;49.494;8.410;2023-02-04T14:12:13;11.20;99.90
28010;DHT22;15334;49.494;8.410;2023-02-04T14:14:41;11.20;99.90
28010;DHT22;15334;49.494;8.410;2023-02-04T14:17:09;11.30;99.90
28010;DHT22;15334;49.494;8.410;2023-02-04T14:19:40;11.40;99.90
28010;DHT22;15334;49.494;8.410;2023-02-04T14:22:19;11.40;99.90
28010;DHT22;15334;49.494;8.410;2023-02-04T14:24:47;11.20;99.90
28010;DHT22;15334;49.494;8.410;2023-02-04T14:27:16;11.10;99.90
28010;DHT22;15334;49.494;8.410;2023-02-04T14:29:43;11.20;99.90
28010;DHT22;15334;49.494;8.410;2023-02-04T14:32:11;11.10;99.90
28010;DHT22;15334;49.494;8.410;2023-02-04T14:34:39;11.00;99.90
28010;DHT22;15334;49.494;8.410;2023-02-04T14:37:07;10.70;99.90
28010;DHT22;15334;49.494;8.410;2023-02-04T14:39:37;10.70;99.90
28010;DHT22;15334;49.494;8.410;2023-02-04T14:42:09;10.70;99.90
28010;DHT22;15334;49.494;8.410;2023-02-04T14:44:37;10.70;99.90
28010;DHT22;15334;49.494;8.410;2023-02-04T14:47:05;10.80;99.90
28010;DHT22;15334;49.494;8.410;2023-02-04T14:49:33;10.90;99.90
28010;DHT22;15334;49.494;8.410;2023-02-04T14:52:06;10.90;99.90
28010;DHT22;15334;49.494;8.410;2023-02-04T14:54:38;10.90;99.90
28010;DHT22;15334;49.494;8.410;2023-02-04T14:57:08;10.80;99.90
28010;DHT22;15334;49.494;8.410;2023-02-04T14:59:37;10.70;99.90
28010;DHT22;15334;49.494;8.410;2023-02-04T15:02:06;10.60;99.90
28010;DHT22;15334;49.494;8.410;2023-02-04T15:04:34;10.50;99.90
28010;DHT22;15334;49.494;8.410;2023-02-04T15:07:02;10.40;99.90
28010;DHT22;15334;49.494;8.410;2023-02-04T15:09:34;10.30;99.90
28010;DHT22;15334;49.494;8.410;2023-02-04T15:12:05;10.20;99.90
28010;DHT22;15334;49.494;8.410;2023-02-04T15:14:33;10.20;99.90
28010;DHT22;15334;49.494;8.410;2023-02-04T15:17:01;10.10;99.90
28010;DHT22;15334;49.494;8.410;2023-02-04T15:19:30;10.20;99.90
28010;DHT22;15334;49.494;8.410;2023-02-04T15:22:00;10.20;99.90
28010;DHT22;15334;49.494;8.410;2023-02-04T15:24:29;10.30;99.90
28010;DHT22;15334;49.494;8.410;2023-02-04T15:26:58;10.30;99.90
28010;DHT22;15334;49.494;8.410;2023-02-04T15:29:28;10.30;99.90
28010;DHT22;15334;49.494;8.410;2023-02-04T15:31:56;10.20;99.90
28010;DHT22;15334;49.494;8.410;2023-02-04T15:34:24;10.20;99.90
28010;DHT22;15334;49.494;8.410;2023-02-04T15:36:52;10.10;99.90
28010;DHT22;15334;49.494;8.410;2023-02-04T15:39:20;10.10;99.90
28010;DHT22;15334;49.494;8.410;2023-02-04T15:41:53;10.20;99.90
28010;DHT22;15334;49.494;8.410;2023-02-04T15:44:23;10.20;99.90
28010;DHT22;15334;49.494;8.410;2023-02-04T15:46:55;10.10;99.90
28010;DHT22;15334;49.494;8.410;2023-02-04T15:49:26;10.10;99.90
28010;DHT22;15334;49.494;8.410;2023-02-04T15:51:55;10.10;99.90
28010;DHT22;15334;49.494;8.410;2023-02-04T15:54:26;10.20;99.90
28010;DHT22;15334;49.494;8.410;2023-02-04T15:56:57;10.20;99.90
28010;DHT22;15334;49.494;8.410;2023-02-04T15:59:27;10.20;99.90
28010;DHT22;15334;49.494;8.410;2023-02-04T16:01:57;10.10;99.90